• Join FlightAware (Why Join?)
  • Login
  • US Flag 
02:42PM EDT


 

Airport Tracker/Info


-or-


 

Live Flight TrackerFlight Track Log ✈ FDX1254 ✈ 29-Apr-2013 ✈ KFWA - KMEM

Flight Track Log - Related Links

Times and Time Zones

All times are in EDT time to prevent confusion due to time zone crossing. See the FDX1254 flight status page for this flight to view local times or setup timezone preferences in your user account.

Time Position Orientation Groundspeed Altitude Reporting Facility
EDT Latitude Longitude Course Direction KTS MPH feet Rate Location/Type
11:14PM 40.8170 -85.2940 219° Southwest 310 357 11,300  Level FlightAware
11:15PM 40.7670 -85.3480 219° Southwest 335 386 12,000 540 Climbing FlightAware
11:15PM 40.7370 -85.3820 221° Southwest 335 386 12,000 3,660 Level FlightAware
11:16PM 40.6490 -85.4760 219° Southwest 394 453 16,900 4,440 Climbing FlightAware
11:17PM 40.5860 -85.5440 219° Southwest 404 465 19,100 2,700 Climbing FlightAware
11:17PM 40.5280 -85.6070 220° Southwest 414 476 20,800 2,520 Climbing FlightAware
11:18PM 40.4610 -85.6790 219° Southwest 425 489 22,700 2,220 Climbing FlightAware
11:19PM 40.3970 -85.7490 220° Southwest 435 501 24,000 2,160 Climbing FlightAware
11:19PM 40.3360 -85.8140 219° Southwest 438 504 25,600 2,160 Climbing FlightAware
11:20PM 40.2640 -85.8910 219° Southwest 449 517 27,100 1,860 Climbing FlightAware
11:21PM 40.2000 -85.9600 219° Southwest 457 526 28,300 900 Climbing FlightAware
11:22PM 40.1330 -86.0300 219° Southwest 459 528 28,400 1,800 Climbing FlightAware
11:22PM 40.0740 -86.0920 219° Southwest 463 533 30,600 1,920 Climbing FlightAware
11:23PM 39.9930 -86.1780 219° Southwest 458 527 31,000 780 Climbing FlightAware
11:24PM 39.9180 -86.2580 219° Southwest 452 520 31,900 1,860 Climbing FlightAware
11:24PM 39.8550 -86.3240 219° Southwest 438 504 33,700 1,560 Climbing FlightAware
11:25PM 39.7870 -86.3880 216° Southwest 438 504 34,000 180 Climbing FlightAware
11:26PM 39.7100 -86.4480 211° Southwest 440 506 34,000  Level FlightAware
11:26PM 39.6380 -86.5020 210° Southwest 443 510 34,000  Level FlightAware
11:27PM 39.5590 -86.5610 210° Southwest 446 513 34,000  Level FlightAware
11:28PM 39.4960 -86.6090 210° Southwest 449 517 34,000  Level FlightAware
11:29PM 39.4150 -86.6700 210° Southwest 451 519 34,000  Level FlightAware
11:29PM 39.3350 -86.7300 210° Southwest 452 520 34,000  Level FlightAware
11:30PM 39.2610 -86.7850 210° Southwest 452 520 34,000  Level FlightAware
11:31PM 39.1810 -86.8450 210° Southwest 452 520 34,000  Level FlightAware
11:31PM 39.1090 -86.8990 210° Southwest 452 520 34,000  Level FlightAware
11:32PM 39.0250 -86.9610 210° Southwest 451 519 34,000  Level FlightAware
11:33PM 38.9530 -87.0150 210° Southwest 451 519 34,000  Level FlightAware
11:33PM 38.8810 -87.0680 210° Southwest 451 519 34,000  Level FlightAware
11:34PM 38.7980 -87.1300 210° Southwest 450 518 34,000  Level FlightAware
11:35PM 38.7260 -87.1830 210° Southwest 448 516 34,000  Level FlightAware
11:36PM 38.6560 -87.2330 209° Southwest 448 516 34,000  Level FlightAware
11:36PM 38.5750 -87.2930 210° Southwest 447 514 34,000  Level FlightAware
11:37PM 38.5020 -87.3470 210° Southwest 447 514 34,000  Level FlightAware
11:38PM 38.4220 -87.4040 209° Southwest 446 513 34,000  Level FlightAware
11:38PM 38.3510 -87.4560 210° Southwest 446 513 34,000  Level FlightAware
11:39PM 38.2760 -87.5110 210° Southwest 445 512 34,000  Level FlightAware
11:40PM 38.1970 -87.5680 210° Southwest 445 512 34,000  Level FlightAware
11:40PM 38.1250 -87.6200 210° Southwest 445 512 34,000  Level FlightAware
11:41PM 38.0540 -87.6720 210° Southwest 446 513 34,000  Level FlightAware
11:42PM 37.9740 -87.7280 209° Southwest 446 513 34,000  Level FlightAware
11:43PM 37.9090 -87.7910 217° Southwest 441 507 34,000  Level FlightAware
11:43PM 37.8460 -87.8790 228° Southwest 440 506 34,000  Level FlightAware
11:44PM 37.7930 -87.9570 229° Southwest 440 506 34,000  Level FlightAware
11:45PM 37.7410 -88.0330 229° Southwest 440 506 34,000  Level FlightAware
11:45PM 37.6790 -88.1220 229° Southwest 440 506 34,000  Level FlightAware
11:46PM 37.6270 -88.1970 229° Southwest 440 506 34,000  Level FlightAware
11:47PM 37.5640 -88.2880 229° Southwest 441 507 34,000  Level FlightAware
11:47PM 37.5120 -88.3630 229° Southwest 442 509 34,000  Level FlightAware
11:48PM 37.4510 -88.4480 228° Southwest 443 510 34,000  Level FlightAware
11:49PM 37.3960 -88.5260 228° Southwest 444 511 34,000  Level FlightAware
11:50PM 37.3420 -88.6030 229° Southwest 445 512 34,000  Level FlightAware
11:50PM 37.2800 -88.6920 229° Southwest 445 512 34,000  Level FlightAware
11:51PM 37.2240 -88.7700 228° Southwest 444 511 34,000 -300 Level FlightAware
11:52PM 37.1610 -88.8580 228° Southwest 443 510 33,600 -240 Descending FlightAware
11:53PM 37.1030 -88.9390 228° Southwest 443 510 33,600  Level FlightAware
11:53PM 37.0570 -89.0040 228° Southwest 443 510 33,600  Level FlightAware
11:54PM 37.0100 -89.0690 228° Southwest 443 510 33,600  Level FlightAware
11:55PM 36.9630 -89.1340 228° Southwest 443 510 33,600  Level FlightAware
11:55PM 36.9170 -89.1980 228° Southwest 443 510 33,600  Level FlightAware
11:56PM 36.8580 -89.2790 228° Southwest 443 510 33,600  Level FlightAware
11:57PM 36.8120 -89.3440 229° Southwest 443 510 33,600  Level FlightAware
11:57PM 36.7650 -89.4090 228° Southwest 443 510 33,600  Level FlightAware
11:58PM 36.7180 -89.4730 228° Southwest 443 510 33,600  Level FlightAware
11:59PM 36.6720 -89.5380 229° Southwest 443 510 33,600  Level FlightAware
12:00AM 36.6130 -89.6180 227° Southwest 443 510 33,600  Level FlightAware
12:00AM 36.5670 -89.6830 229° Southwest 443 510 33,600  Level FlightAware
12:01AM 36.5200 -89.7470 228° Southwest 443 510 33,600 -8,820 Level FlightAware
12:02AM 36.1694 -89.7194 228° Southwest 435 501 18,100 -8,580 Descending Memphis Center
12:03AM 36.0611 -89.7458 191° South 422 486 15,600 -2,580 Descending Memphis Center
12:04AM 35.9550 -89.7672 189° South 404 465 13,000 -2,280 Descending Memphis Center
12:05AM 35.8550 -89.7883 190° South 388 447 11,100 -1,500 Descending Memphis Center
12:06AM 35.7653 -89.8094 191° South 357 411 10,100 -780 Descending Memphis Center
12:07AM 35.6883 -89.8253 189° South 319 367 9,600 -1,020 Descending Memphis Center
12:08AM 35.6131 -89.8053 168° South 275 316 8,100 -1,500 Descending Memphis Center
12:09AM 35.5400 -89.7728 160° South 275 316 6,600 -1,380 Descending Memphis Center
12:10AM 35.4750 -89.7400 158° South 275 316 5,400 -1,260 Descending Memphis Center
12:11AM 35.4061 -89.7100 160° South 270 311 4,100 -720 Descending Memphis Center
12:12AM 35.3350 -89.6903 167° South 270 311 4,000 -60 Descending Memphis Center
12:13AM 35.2642 -89.6908 180° South 260 299 4,000  Level Memphis Center
12:14AM 35.1911 -89.6889 179° South 260 299 4,000 -60 Level Memphis Center
12:15AM 35.1244 -89.6969 186° South 248 285 3,900 -540 Descending Memphis Center
12:16AM 35.0703 -89.7331 209° Southwest 209 241 3,000 -480 Descending Memphis Center
12:17AM 35.0539 -89.7914 251° West 186 214 3,000 -540 Level Memphis Center
12:18AM 35.0564 -89.8522 273° West 181 208 2,000 -960 Descending Memphis Center
12:19AM 35.0500 -89.8833 256° West 176 203 1,500 -840 Descending KMEM
12:20AM 35.0500 -89.9167 270° West 122 140 800 -780 Descending KMEM
12:22AM 35.0333 -89.9667 243° Southwest  Level FlightAware Approximate